sensor_id;sensor_type;location;lat;lon;timestamp;temperature;humidity
3281;DHT22;1652;51.318;6.202;2023-04-23T00:02:02;9.40;99.90
3281;DHT22;1652;51.318;6.202;2023-04-23T00:04:32;9.40;99.90
3281;DHT22;1652;51.318;6.202;2023-04-23T00:07:03;9.40;99.90
3281;DHT22;1652;51.318;6.202;2023-04-23T00:09:30;9.40;99.90
3281;DHT22;1652;51.318;6.202;2023-04-23T00:12:00;9.40;99.90
3281;DHT22;1652;51.318;6.202;2023-04-23T00:14:28;9.60;99.90
3281;DHT22;1652;51.318;6.202;2023-04-23T00:16:55;9.50;99.90
3281;DHT22;1652;51.318;6.202;2023-04-23T00:19:22;9.50;99.90
3281;DHT22;1652;51.318;6.202;2023-04-23T00:21:48;9.40;99.90
3281;DHT22;1652;51.318;6.202;2023-04-23T00:24:15;9.40;99.90
3281;DHT22;1652;51.318;6.202;2023-04-23T00:26:42;9.40;99.90
3281;DHT22;1652;51.318;6.202;2023-04-23T00:29:09;9.30;99.90
3281;DHT22;1652;51.318;6.202;2023-04-23T00:31:36;9.40;99.90
3281;DHT22;1652;51.318;6.202;2023-04-23T00:34:03;9.30;99.90
3281;DHT22;1652;51.318;6.202;2023-04-23T00:36:30;9.30;99.90
3281;DHT22;1652;51.318;6.202;2023-04-23T00:38:57;9.30;99.90
3281;DHT22;1652;51.318;6.202;2023-04-23T00:41:24;9.30;99.90
3281;DHT22;1652;51.318;6.202;2023-04-23T00:43:53;9.30;99.90
3281;DHT22;1652;51.318;6.202;2023-04-23T00:46:24;9.20;99.90
3281;DHT22;1652;51.318;6.202;2023-04-23T00:48:52;9.20;99.90
3281;DHT22;1652;51.318;6.202;2023-04-23T00:51:23;9.20;99.90
3281;DHT22;1652;51.318;6.202;2023-04-23T00:53:50;9.30;99.90
3281;DHT22;1652;51.318;6.202;2023-04-23T00:56:17;9.20;99.90
3281;DHT22;1652;51.318;6.202;2023-04-23T00:58:44;9.10;99.90
3281;DHT22;1652;51.318;6.202;2023-04-23T01:01:11;9.10;99.90
3281;DHT22;1652;51.318;6.202;2023-04-23T01:03:41;9.10;99.90
3281;DHT22;1652;51.318;6.202;2023-04-23T01:06:09;9.10;99.90
3281;DHT22;1652;51.318;6.202;2023-04-23T01:08:36;9.00;99.90
3281;DHT22;1652;51.318;6.202;2023-04-23T01:11:04;8.90;99.90
3281;DHT22;1652;51.318;6.202;2023-04-23T01:13:31;8.90;99.90
3281;DHT22;1652;51.318;6.202;2023-04-23T01:15:58;8.80;99.90
3281;DHT22;1652;51.318;6.202;2023-04-23T01:18:26;8.90;99.90
3281;DHT22;1652;51.318;6.202;2023-04-23T01:20:53;8.90;99.90
3281;DHT22;1652;51.318;6.202;2023-04-23T01:23:20;8.80;99.90
3281;DHT22;1652;51.318;6.202;2023-04-23T01:25:47;8.90;99.90
3281;DHT22;1652;51.318;6.202;2023-04-23T01:28:14;8.80;99.90
3281;DHT22;1652;51.318;6.202;2023-04-23T01:30:42;8.70;99.90
3281;DHT22;1652;51.318;6.202;2023-04-23T01:35:50;8.70;99.90
3281;DHT22;1652;51.318;6.202;2023-04-23T01:38:18;8.60;99.90
3281;DHT22;1652;51.318;6.202;2023-04-23T01:40:46;8.50;99.90
3281;DHT22;1652;51.318;6.202;2023-04-23T01:43:14;8.60;99.90
3281;DHT22;1652;51.318;6.202;2023-04-23T01:45:41;8.70;99.90
3281;DHT22;1652;51.318;6.202;2023-04-23T01:48:08;8.70;99.90
3281;DHT22;1652;51.318;6.202;2023-04-23T01:50:35;8.70;99.90
3281;DHT22;1652;51.318;6.202;2023-04-23T01:53:02;8.50;99.90
3281;DHT22;1652;51.318;6.202;2023-04-23T01:55:30;8.60;99.90
3281;DHT22;1652;51.318;6.202;2023-04-23T01:57:57;8.60;99.90
3281;DHT22;1652;51.318;6.202;2023-04-23T02:00:24;8.60;99.90
3281;DHT22;1652;51.318;6.202;2023-04-23T02:02:51;8.60;99.90
3281;DHT22;1652;51.318;6.202;2023-04-23T02:05:20;8.70;99.90
3281;DHT22;1652;51.318;6.202;2023-04-23T02:07:49;8.70;99.90
3281;DHT22;1652;51.318;6.202;2023-04-23T02:10:16;8.80;99.90
3281;DHT22;1652;51.318;6.202;2023-04-23T02:12:44;8.90;99.90
3281;DHT22;1652;51.318;6.202;2023-04-23T02:17:37;9.00;99.90
3281;DHT22;1652;51.318;6.202;2023-04-23T02:20:09;9.10;99.90
3281;DHT22;1652;51.318;6.202;2023-04-23T02:22:38;9.10;99.90
3281;DHT22;1652;51.318;6.202;2023-04-23T02:25:06;9.10;99.90
3281;DHT22;1652;51.318;6.202;2023-04-23T02:27:33;9.10;99.90
3281;DHT22;1652;51.318;6.202;2023-04-23T02:30:01;9.20;99.90
3281;DHT22;1652;51.318;6.202;2023-04-23T02:32:29;9.20;99.90
3281;DHT22;1652;51.318;6.202;2023-04-23T02:34:56;9.20;99.90
3281;DHT22;1652;51.318;6.202;2023-04-23T02:37:25;9.30;99.90
3281;DHT22;1652;51.318;6.202;2023-04-23T02:39:52;9.30;99.90
3281;DHT22;1652;51.318;6.202;2023-04-23T02:42:19;9.40;99.90
3281;DHT22;1652;51.318;6.202;2023-04-23T02:44:46;9.40;99.90
3281;DHT22;1652;51.318;6.202;2023-04-23T02:47:13;9.40;99.90
3281;DHT22;1652;51.318;6.202;2023-04-23T02:49:40;9.40;99.90
3281;DHT22;1652;51.318;6.202;2023-04-23T02:52:07;9.40;99.90
3281;DHT22;1652;51.318;6.202;2023-04-23T02:54:34;9.40;99.90
3281;DHT22;1652;51.318;6.202;2023-04-23T02:57:03;9.40;99.90
3281;DHT22;1652;51.318;6.202;2023-04-23T02:59:30;9.40;99.90
3281;DHT22;1652;51.318;6.202;2023-04-23T03:01:57;9.40;99.90
3281;DHT22;1652;51.318;6.202;2023-04-23T03:04:24;9.40;99.90
3281;DHT22;1652;51.318;6.202;2023-04-23T03:06:51;9.40;99.90
3281;DHT22;1652;51.318;6.202;2023-04-23T03:09:18;9.30;99.90
3281;DHT22;1652;51.318;6.202;2023-04-23T03:11:45;9.30;99.90
3281;DHT22;1652;51.318;6.202;2023-04-23T03:14:12;9.30;99.90
3281;DHT22;1652;51.318;6.202;2023-04-23T03:16:39;9.30;99.90
3281;DHT22;1652;51.318;6.202;2023-04-23T03:19:06;9.30;99.90
3281;DHT22;1652;51.318;6.202;2023-04-23T03:21:33;9.20;99.90
3281;DHT22;1652;51.318;6.202;2023-04-23T03:24:00;9.10;99.90
3281;DHT22;1652;51.318;6.202;2023-04-23T03:26:26;9.10;99.90
3281;DHT22;1652;51.318;6.202;2023-04-23T03:28:53;9.10;99.90
3281;DHT22;1652;51.318;6.202;2023-04-23T03:31:20;9.00;99.90
3281;DHT22;1652;51.318;6.202;2023-04-23T03:33:47;9.10;99.90
3281;DHT22;1652;51.318;6.202;2023-04-23T03:36:14;9.00;99.90
3281;DHT22;1652;51.318;6.202;2023-04-23T03:38:41;9.10;99.90
3281;DHT22;1652;51.318;6.202;2023-04-23T03:41:08;9.00;99.90
3281;DHT22;1652;51.318;6.202;2023-04-23T03:43:35;8.90;99.90
3281;DHT22;1652;51.318;6.202;2023-04-23T03:46:02;8.80;99.90
3281;DHT22;1652;51.318;6.202;2023-04-23T03:48:29;8.70;99.90
3281;DHT22;1652;51.318;6.202;2023-04-23T03:50:56;8.60;99.90
3281;DHT22;1652;51.318;6.202;2023-04-23T03:53:23;8.50;99.90
3281;DHT22;1652;51.318;6.202;2023-04-23T03:55:50;8.50;99.90
3281;DHT22;1652;51.318;6.202;2023-04-23T03:58:17;8.60;99.90
3281;DHT22;1652;51.318;6.202;2023-04-23T04:00:44;8.60;99.90
3281;DHT22;1652;51.318;6.202;2023-04-23T04:03:11;8.60;99.90
3281;DHT22;1652;51.318;6.202;2023-04-23T04:05:38;8.50;99.90
3281;DHT22;1652;51.318;6.202;2023-04-23T04:08:05;8.50;99.90
3281;DHT22;1652;51.318;6.202;2023-04-23T04:10:32;8.60;99.90
3281;DHT22;1652;51.318;6.202;2023-04-23T04:12:58;8.60;99.90
3281;DHT22;1652;51.318;6.202;2023-04-23T04:15:26;8.60;99.90
3281;DHT22;1652;51.318;6.202;2023-04-23T04:17:52;8.70;99.90
3281;DHT22;1652;51.318;6.202;2023-04-23T04:20:19;8.70;99.90
3281;DHT22;1652;51.318;6.202;2023-04-23T04:22:46;8.80;99.90
3281;DHT22;1652;51.318;6.202;2023-04-23T04:25:13;8.80;99.90
3281;DHT22;1652;51.318;6.202;2023-04-23T04:27:40;8.90;99.90
3281;DHT22;1652;51.318;6.202;2023-04-23T04:30:08;9.00;99.90
3281;DHT22;1652;51.318;6.202;2023-04-23T04:32:35;9.00;99.90
3281;DHT22;1652;51.318;6.202;2023-04-23T04:35:05;9.10;99.90
3281;DHT22;1652;51.318;6.202;2023-04-23T04:37:32;9.20;99.90
3281;DHT22;1652;51.318;6.202;2023-04-23T04:39:59;9.20;99.90
3281;DHT22;1652;51.318;6.202;2023-04-23T04:42:27;9.30;99.90
3281;DHT22;1652;51.318;6.202;2023-04-23T04:44:53;9.40;99.90
3281;DHT22;1652;51.318;6.202;2023-04-23T04:47:24;9.50;99.90
3281;DHT22;1652;51.318;6.202;2023-04-23T04:49:51;9.60;99.90
3281;DHT22;1652;51.318;6.202;2023-04-23T04:52:18;9.70;99.90
3281;DHT22;1652;51.318;6.202;2023-04-23T04:54:45;9.70;99.90
3281;DHT22;1652;51.318;6.202;2023-04-23T04:57:12;9.70;99.90
3281;DHT22;1652;51.318;6.202;2023-04-23T04:59:39;9.80;99.90
3281;DHT22;1652;51.318;6.202;2023-04-23T05:02:06;9.80;99.90
3281;DHT22;1652;51.318;6.202;2023-04-23T05:04:33;9.80;99.90
3281;DHT22;1652;51.318;6.202;2023-04-23T05:07:00;9.90;99.90
3281;DHT22;1652;51.318;6.202;2023-04-23T05:09:27;9.90;99.90
3281;DHT22;1652;51.318;6.202;2023-04-23T05:11:54;9.90;99.90
3281;DHT22;1652;51.318;6.202;2023-04-23T05:14:21;10.00;99.90
3281;DHT22;1652;51.318;6.202;2023-04-23T05:16:48;10.00;99.90
3281;DHT22;1652;51.318;6.202;2023-04-23T05:19:15;10.10;99.90
3281;DHT22;1652;51.318;6.202;2023-04-23T05:21:42;10.10;99.90
3281;DHT22;1652;51.318;6.202;2023-04-23T05:24:09;10.20;99.90
3281;DHT22;1652;51.318;6.202;2023-04-23T05:26:36;10.30;99.90
3281;DHT22;1652;51.318;6.202;2023-04-23T05:29:03;10.30;99.90
3281;DHT22;1652;51.318;6.202;2023-04-23T05:31:29;10.40;99.90
3281;DHT22;1652;51.318;6.202;2023-04-23T05:33:57;10.40;99.90
3281;DHT22;1652;51.318;6.202;2023-04-23T05:36:24;10.40;99.90
3281;DHT22;1652;51.318;6.202;2023-04-23T05:38:51;10.50;99.90
3281;DHT22;1652;51.318;6.202;2023-04-23T05:41:18;10.60;99.90
3281;DHT22;1652;51.318;6.202;2023-04-23T05:43:45;10.70;99.90
3281;DHT22;1652;51.318;6.202;2023-04-23T05:46:12;10.70;99.90
3281;DHT22;1652;51.318;6.202;2023-04-23T05:48:39;10.80;99.90
3281;DHT22;1652;51.318;6.202;2023-04-23T05:51:05;10.90;99.90
3281;DHT22;1652;51.318;6.202;2023-04-23T05:53:32;10.90;99.90
3281;DHT22;1652;51.318;6.202;2023-04-23T05:55:59;11.00;99.90
3281;DHT22;1652;51.318;6.202;2023-04-23T05:58:26;11.10;99.90
3281;DHT22;1652;51.318;6.202;2023-04-23T06:00:53;11.10;99.90
3281;DHT22;1652;51.318;6.202;2023-04-23T06:03:20;11.10;99.90
3281;DHT22;1652;51.318;6.202;2023-04-23T06:05:47;11.10;99.90
3281;DHT22;1652;51.318;6.202;2023-04-23T06:08:14;11.10;99.90
3281;DHT22;1652;51.318;6.202;2023-04-23T06:10:41;11.20;99.90
3281;DHT22;1652;51.318;6.202;2023-04-23T06:13:08;11.40;99.90
3281;DHT22;1652;51.318;6.202;2023-04-23T06:15:37;12.40;99.90
3281;DHT22;1652;51.318;6.202;2023-04-23T06:18:03;14.00;99.90
3281;DHT22;1652;51.318;6.202;2023-04-23T06:20:31;15.80;99.90
3281;DHT22;1652;51.318;6.202;2023-04-23T06:22:58;17.10;99.90
3281;DHT22;1652;51.318;6.202;2023-04-23T06:25:25;18.60;99.90
3281;DHT22;1652;51.318;6.202;2023-04-23T06:27:52;19.50;99.90
3281;DHT22;1652;51.318;6.202;2023-04-23T06:30:19;19.00;99.90
3281;DHT22;1652;51.318;6.202;2023-04-23T06:32:46;17.90;99.90
3281;DHT22;1652;51.318;6.202;2023-04-23T06:35:13;17.00;99.90
3281;DHT22;1652;51.318;6.202;2023-04-23T06:37:40;17.40;99.90
3281;DHT22;1652;51.318;6.202;2023-04-23T06:40:07;18.50;99.90
3281;DHT22;1652;51.318;6.202;2023-04-23T06:42:34;19.50;99.90
3281;DHT22;1652;51.318;6.202;2023-04-23T06:45:01;20.50;99.90
3281;DHT22;1652;51.318;6.202;2023-04-23T06:47:32;21.20;99.90
3281;DHT22;1652;51.318;6.202;2023-04-23T06:49:58;21.70;99.90
3281;DHT22;1652;51.318;6.202;2023-04-23T06:52:26;22.00;99.90
3281;DHT22;1652;51.318;6.202;2023-04-23T06:54:53;21.90;99.90
3281;DHT22;1652;51.318;6.202;2023-04-23T06:57:20;21.40;99.90
3281;DHT22;1652;51.318;6.202;2023-04-23T06:59:47;21.70;99.90
3281;DHT22;1652;51.318;6.202;2023-04-23T07:02:14;22.00;99.90
3281;DHT22;1652;51.318;6.202;2023-04-23T07:04:41;21.60;99.90
3281;DHT22;1652;51.318;6.202;2023-04-23T07:07:09;20.80;99.90
3281;DHT22;1652;51.318;6.202;2023-04-23T07:09:36;20.60;99.90
3281;DHT22;1652;51.318;6.202;2023-04-23T07:12:03;20.90;99.90
3281;DHT22;1652;51.318;6.202;2023-04-23T07:14:31;21.20;99.90
3281;DHT22;1652;51.318;6.202;2023-04-23T07:16:58;21.50;99.90
3281;DHT22;1652;51.318;6.202;2023-04-23T07:19:25;21.80;99.90
3281;DHT22;1652;51.318;6.202;2023-04-23T07:21:53;21.70;99.90
3281;DHT22;1652;51.318;6.202;2023-04-23T07:24:20;22.40;99.90
3281;DHT22;1652;51.318;6.202;2023-04-23T07:26:46;22.10;99.90
3281;DHT22;1652;51.318;6.202;2023-04-23T07:29:13;22.10;99.90
3281;DHT22;1652;51.318;6.202;2023-04-23T07:31:41;22.10;99.90
3281;DHT22;1652;51.318;6.202;2023-04-23T07:34:08;22.40;99.90
3281;DHT22;1652;51.318;6.202;2023-04-23T07:36:35;22.30;99.90
3281;DHT22;1652;51.318;6.202;2023-04-23T07:39:02;22.10;99.90
3281;DHT22;1652;51.318;6.202;2023-04-23T07:41:31;21.90;99.90
3281;DHT22;1652;51.318;6.202;2023-04-23T07:43:58;21.90;99.90
3281;DHT22;1652;51.318;6.202;2023-04-23T07:46:25;22.60;99.90
3281;DHT22;1652;51.318;6.202;2023-04-23T07:48:52;23.10;99.90
3281;DHT22;1652;51.318;6.202;2023-04-23T07:51:19;23.20;99.90
3281;DHT22;1652;51.318;6.202;2023-04-23T07:53:48;23.40;99.90
3281;DHT22;1652;51.318;6.202;2023-04-23T07:56:16;23.90;99.90
3281;DHT22;1652;51.318;6.202;2023-04-23T07:58:43;24.20;99.90
3281;DHT22;1652;51.318;6.202;2023-04-23T08:01:10;24.10;99.90
3281;DHT22;1652;51.318;6.202;2023-04-23T08:03:37;23.80;99.90
3281;DHT22;1652;51.318;6.202;2023-04-23T08:06:04;23.10;99.90
3281;DHT22;1652;51.318;6.202;2023-04-23T08:08:31;22.90;99.90
3281;DHT22;1652;51.318;6.202;2023-04-23T08:10:58;22.90;99.90
3281;DHT22;1652;51.318;6.202;2023-04-23T08:13:25;23.20;99.90
3281;DHT22;1652;51.318;6.202;2023-04-23T08:15:52;22.60;99.90
3281;DHT22;1652;51.318;6.202;2023-04-23T08:18:19;22.00;99.90
3281;DHT22;1652;51.318;6.202;2023-04-23T08:20:46;21.80;99.90
3281;DHT22;1652;51.318;6.202;2023-04-23T08:23:13;21.70;99.90
3281;DHT22;1652;51.318;6.202;2023-04-23T08:25:40;21.70;99.90
3281;DHT22;1652;51.318;6.202;2023-04-23T08:28:07;21.30;99.90
3281;DHT22;1652;51.318;6.202;2023-04-23T08:30:33;21.40;99.90
3281;DHT22;1652;51.318;6.202;2023-04-23T08:33:00;21.70;99.90
3281;DHT22;1652;51.318;6.202;2023-04-23T08:35:27;22.10;99.90
3281;DHT22;1652;51.318;6.202;2023-04-23T08:37:54;22.00;99.90
3281;DHT22;1652;51.318;6.202;2023-04-23T08:40:21;21.60;99.90
3281;DHT22;1652;51.318;6.202;2023-04-23T08:42:52;21.40;99.90
3281;DHT22;1652;51.318;6.202;2023-04-23T08:45:21;21.20;99.90
3281;DHT22;1652;51.318;6.202;2023-04-23T08:47:48;20.70;99.90
3281;DHT22;1652;51.318;6.202;2023-04-23T08:50:17;20.30;99.90
3281;DHT22;1652;51.318;6.202;2023-04-23T08:52:48;20.60;99.90
3281;DHT22;1652;51.318;6.202;2023-04-23T08:55:16;20.30;99.90
3281;DHT22;1652;51.318;6.202;2023-04-23T08:57:45;19.60;99.90
3281;DHT22;1652;51.318;6.202;2023-04-23T09:00:13;19.00;99.90
3281;DHT22;1652;51.318;6.202;2023-04-23T09:02:43;18.90;99.90
3281;DHT22;1652;51.318;6.202;2023-04-23T09:05:11;18.70;99.90
3281;DHT22;1652;51.318;6.202;2023-04-23T09:07:39;18.90;99.90
3281;DHT22;1652;51.318;6.202;2023-04-23T09:10:08;19.50;99.90
3281;DHT22;1652;51.318;6.202;2023-04-23T09:12:36;20.10;99.90
3281;DHT22;1652;51.318;6.202;2023-04-23T09:17:32;19.90;99.90
3281;DHT22;1652;51.318;6.202;2023-04-23T09:19:59;19.70;99.90
3281;DHT22;1652;51.318;6.202;2023-04-23T09:22:47;19.40;99.90
3281;DHT22;1652;51.318;6.202;2023-04-23T09:25:16;18.90;99.90
3281;DHT22;1652;51.318;6.202;2023-04-23T09:27:44;18.70;99.90
3281;DHT22;1652;51.318;6.202;2023-04-23T09:30:12;18.50;99.90
3281;DHT22;1652;51.318;6.202;2023-04-23T09:32:40;18.40;99.90
3281;DHT22;1652;51.318;6.202;2023-04-23T09:35:10;18.40;99.90
3281;DHT22;1652;51.318;6.202;2023-04-23T09:37:40;18.50;99.90
3281;DHT22;1652;51.318;6.202;2023-04-23T09:40:08;18.60;99.90
3281;DHT22;1652;51.318;6.202;2023-04-23T09:42:38;18.70;99.90
3281;DHT22;1652;51.318;6.202;2023-04-23T09:45:08;18.70;99.90
3281;DHT22;1652;51.318;6.202;2023-04-23T09:47:38;18.80;99.90
3281;DHT22;1652;51.318;6.202;2023-04-23T09:50:06;19.00;99.90
3281;DHT22;1652;51.318;6.202;2023-04-23T09:52:37;19.10;99.90
3281;DHT22;1652;51.318;6.202;2023-04-23T09:55:05;19.00;99.90
3281;DHT22;1652;51.318;6.202;2023-04-23T09:57:42;18.90;99.90
3281;DHT22;1652;51.318;6.202;2023-04-23T10:00:17;18.90;99.90
3281;DHT22;1652;51.318;6.202;2023-04-23T10:02:46;18.80;99.90
3281;DHT22;1652;51.318;6.202;2023-04-23T10:05:15;18.80;99.90
3281;DHT22;1652;51.318;6.202;2023-04-23T10:07:51;19.00;99.90
3281;DHT22;1652;51.318;6.202;2023-04-23T10:10:19;19.30;99.90
3281;DHT22;1652;51.318;6.202;2023-04-23T10:12:46;19.10;99.90
3281;DHT22;1652;51.318;6.202;2023-04-23T10:15:22;18.80;99.90
3281;DHT22;1652;51.318;6.202;2023-04-23T10:17:51;18.60;99.90
3281;DHT22;1652;51.318;6.202;2023-04-23T10:20:22;18.40;99.90
3281;DHT22;1652;51.318;6.202;2023-04-23T10:22:52;18.30;99.90
3281;DHT22;1652;51.318;6.202;2023-04-23T10:25:20;18.20;99.90
3281;DHT22;1652;51.318;6.202;2023-04-23T10:27:49;18.00;99.90
3281;DHT22;1652;51.318;6.202;2023-04-23T10:30:20;18.00;99.90
3281;DHT22;1652;51.318;6.202;2023-04-23T10:32:49;18.10;99.90
3281;DHT22;1652;51.318;6.202;2023-04-23T10:35:16;18.30;99.90
3281;DHT22;1652;51.318;6.202;2023-04-23T10:37:44;18.50;99.90
3281;DHT22;1652;51.318;6.202;2023-04-23T10:40:13;18.50;99.90
3281;DHT22;1652;51.318;6.202;2023-04-23T10:42:42;18.50;99.90
3281;DHT22;1652;51.318;6.202;2023-04-23T10:45:17;18.40;99.90
3281;DHT22;1652;51.318;6.202;2023-04-23T10:47:47;18.40;99.90
3281;DHT22;1652;51.318;6.202;2023-04-23T10:50:23;18.40;99.90
3281;DHT22;1652;51.318;6.202;2023-04-23T10:52:51;18.70;99.90
3281;DHT22;1652;51.318;6.202;2023-04-23T10:55:22;19.00;99.90
3281;DHT22;1652;51.318;6.202;2023-04-23T10:58:02;19.00;99.90
3281;DHT22;1652;51.318;6.202;2023-04-23T11:00:50;19.20;99.90
3281;DHT22;1652;51.318;6.202;2023-04-23T11:03:41;18.90;99.90
3281;DHT22;1652;51.318;6.202;2023-04-23T11:06:19;18.90;99.90
3281;DHT22;1652;51.318;6.202;2023-04-23T11:09:27;18.80;99.90
3281;DHT22;1652;51.318;6.202;2023-04-23T11:11:54;18.70;99.90
3281;DHT22;1652;51.318;6.202;2023-04-23T11:14:32;18.60;99.90
3281;DHT22;1652;51.318;6.202;2023-04-23T11:17:03;18.60;99.90
3281;DHT22;1652;51.318;6.202;2023-04-23T11:19:35;18.80;99.90
3281;DHT22;1652;51.318;6.202;2023-04-23T11:22:15;18.80;99.90
3281;DHT22;1652;51.318;6.202;2023-04-23T11:24:46;18.90;99.90
3281;DHT22;1652;51.318;6.202;2023-04-23T11:27:17;19.00;99.90
3281;DHT22;1652;51.318;6.202;2023-04-23T11:29:45;19.10;99.90
3281;DHT22;1652;51.318;6.202;2023-04-23T11:32:15;18.90;99.90
3281;DHT22;1652;51.318;6.202;2023-04-23T11:34:44;19.00;99.90
3281;DHT22;1652;51.318;6.202;2023-04-23T11:37:16;19.20;99.90
3281;DHT22;1652;51.318;6.202;2023-04-23T11:39:45;19.20;99.90
3281;DHT22;1652;51.318;6.202;2023-04-23T11:42:14;19.10;99.90
3281;DHT22;1652;51.318;6.202;2023-04-23T11:44:42;19.00;99.90
3281;DHT22;1652;51.318;6.202;2023-04-23T11:47:11;18.80;99.90
3281;DHT22;1652;51.318;6.202;2023-04-23T11:49:40;18.80;99.90
3281;DHT22;1652;51.318;6.202;2023-04-23T11:52:09;18.70;99.90
3281;DHT22;1652;51.318;6.202;2023-04-23T11:54:39;18.80;99.90
3281;DHT22;1652;51.318;6.202;2023-04-23T11:57:06;18.80;99.90
3281;DHT22;1652;51.318;6.202;2023-04-23T11:59:34;18.90;99.90
3281;DHT22;1652;51.318;6.202;2023-04-23T12:02:01;19.10;99.90
3281;DHT22;1652;51.318;6.202;2023-04-23T12:04:30;19.20;99.90
3281;DHT22;1652;51.318;6.202;2023-04-23T12:06:58;19.30;99.90
3281;DHT22;1652;51.318;6.202;2023-04-23T12:09:26;19.20;99.90
3281;DHT22;1652;51.318;6.202;2023-04-23T12:11:54;19.30;99.90
3281;DHT22;1652;51.318;6.202;2023-04-23T12:14:27;19.30;99.90
3281;DHT22;1652;51.318;6.202;2023-04-23T12:16:55;19.40;99.90
3281;DHT22;1652;51.318;6.202;2023-04-23T12:19:27;19.30;99.90
3281;DHT22;1652;51.318;6.202;2023-04-23T12:22:02;19.20;99.90
3281;DHT22;1652;51.318;6.202;2023-04-23T12:24:44;19.20;99.90
3281;DHT22;1652;51.318;6.202;2023-04-23T12:27:13;19.30;99.90
3281;DHT22;1652;51.318;6.202;2023-04-23T12:29:41;19.10;99.90
3281;DHT22;1652;51.318;6.202;2023-04-23T12:32:14;19.10;99.90
3281;DHT22;1652;51.318;6.202;2023-04-23T12:34:54;19.10;99.90
3281;DHT22;1652;51.318;6.202;2023-04-23T12:37:27;18.90;99.90
3281;DHT22;1652;51.318;6.202;2023-04-23T12:39:54;18.90;99.90
3281;DHT22;1652;51.318;6.202;2023-04-23T12:42:22;18.90;99.90
3281;DHT22;1652;51.318;6.202;2023-04-23T12:44:50;18.90;99.90
3281;DHT22;1652;51.318;6.202;2023-04-23T12:47:17;19.10;99.90
3281;DHT22;1652;51.318;6.202;2023-04-23T12:49:47;19.30;99.90
3281;DHT22;1652;51.318;6.202;2023-04-23T12:52:15;19.10;99.90
3281;DHT22;1652;51.318;6.202;2023-04-23T12:54:42;19.00;99.90
3281;DHT22;1652;51.318;6.202;2023-04-23T12:57:11;18.90;99.90
3281;DHT22;1652;51.318;6.202;2023-04-23T12:59:38;19.00;99.90
3281;DHT22;1652;51.318;6.202;2023-04-23T13:02:05;19.00;99.90
3281;DHT22;1652;51.318;6.202;2023-04-23T13:04:34;19.10;99.90
3281;DHT22;1652;51.318;6.202;2023-04-23T13:07:02;19.20;99.90
3281;DHT22;1652;51.318;6.202;2023-04-23T13:09:29;19.20;99.90
3281;DHT22;1652;51.318;6.202;2023-04-23T13:11:56;19.40;99.90
3281;DHT22;1652;51.318;6.202;2023-04-23T13:14:23;19.60;99.90
3281;DHT22;1652;51.318;6.202;2023-04-23T13:16:50;19.50;99.90
3281;DHT22;1652;51.318;6.202;2023-04-23T13:19:18;19.50;99.90
3281;DHT22;1652;51.318;6.202;2023-04-23T13:21:45;19.40;99.90
3281;DHT22;1652;51.318;6.202;2023-04-23T13:24:12;19.60;99.90
3281;DHT22;1652;51.318;6.202;2023-04-23T13:26:39;19.60;99.90
3281;DHT22;1652;51.318;6.202;2023-04-23T13:29:06;19.50;99.90
3281;DHT22;1652;51.318;6.202;2023-04-23T13:31:33;19.50;99.90
3281;DHT22;1652;51.318;6.202;2023-04-23T13:34:00;19.50;99.90
3281;DHT22;1652;51.318;6.202;2023-04-23T13:36:28;19.50;99.90
3281;DHT22;1652;51.318;6.202;2023-04-23T13:38:55;19.50;99.90
3281;DHT22;1652;51.318;6.202;2023-04-23T13:41:22;19.50;99.90
3281;DHT22;1652;51.318;6.202;2023-04-23T13:43:49;19.40;99.90
3281;DHT22;1652;51.318;6.202;2023-04-23T13:46:16;19.40;99.90
3281;DHT22;1652;51.318;6.202;2023-04-23T13:48:45;19.40;99.90
3281;DHT22;1652;51.318;6.202;2023-04-23T13:51:12;19.50;99.90
3281;DHT22;1652;51.318;6.202;2023-04-23T13:53:59;19.60;99.90
3281;DHT22;1652;51.318;6.202;2023-04-23T13:56:26;19.60;99.90
3281;DHT22;1652;51.318;6.202;2023-04-23T13:58:53;19.40;99.90
3281;DHT22;1652;51.318;6.202;2023-04-23T14:01:44;19.40;99.90
3281;DHT22;1652;51.318;6.202;2023-04-23T14:04:12;19.50;99.90
3281;DHT22;1652;51.318;6.202;2023-04-23T14:06:39;19.50;99.90
3281;DHT22;1652;51.318;6.202;2023-04-23T14:09:06;19.30;99.90
3281;DHT22;1652;51.318;6.202;2023-04-23T14:11:34;19.00;99.90
3281;DHT22;1652;51.318;6.202;2023-04-23T14:14:01;18.70;99.90
3281;DHT22;1652;51.318;6.202;2023-04-23T14:16:28;18.40;99.90
3281;DHT22;1652;51.318;6.202;2023-04-23T14:18:56;18.00;99.90
3281;DHT22;1652;51.318;6.202;2023-04-23T14:21:23;17.80;99.90
3281;DHT22;1652;51.318;6.202;2023-04-23T14:23:54;17.80;99.90
3281;DHT22;1652;51.318;6.202;2023-04-23T14:29:23;17.50;99.90
3281;DHT22;1652;51.318;6.202;2023-04-23T14:31:50;17.30;99.90
3281;DHT22;1652;51.318;6.202;2023-04-23T14:34:17;17.30;99.90
3281;DHT22;1652;51.318;6.202;2023-04-23T14:36:44;17.30;99.90
3281;DHT22;1652;51.318;6.202;2023-04-23T14:39:15;17.20;99.90
3281;DHT22;1652;51.318;6.202;2023-04-23T14:41:41;17.10;99.90
3281;DHT22;1652;51.318;6.202;2023-04-23T14:44:08;17.00;99.90
3281;DHT22;1652;51.318;6.202;2023-04-23T14:46:36;16.80;99.90
3281;DHT22;1652;51.318;6.202;2023-04-23T14:49:03;16.50;99.90
3281;DHT22;1652;51.318;6.202;2023-04-23T14:51:30;16.00;99.90
3281;DHT22;1652;51.318;6.202;2023-04-23T14:53:57;15.50;99.90
3281;DHT22;1652;51.318;6.202;2023-04-23T14:56:24;15.10;99.90
3281;DHT22;1652;51.318;6.202;2023-04-23T14:58:55;14.70;99.90
3281;DHT22;1652;51.318;6.202;2023-04-23T15:01:23;14.30;99.90
3281;DHT22;1652;51.318;6.202;2023-04-23T15:03:51;13.90;99.90
3281;DHT22;1652;51.318;6.202;2023-04-23T15:06:18;13.70;99.90
3281;DHT22;1652;51.318;6.202;2023-04-23T15:08:45;13.60;99.90
3281;DHT22;1652;51.318;6.202;2023-04-23T15:11:12;13.40;99.90
3281;DHT22;1652;51.318;6.202;2023-04-23T15:13:48;13.30;99.90
3281;DHT22;1652;51.318;6.202;2023-04-23T15:16:27;13.30;99.90
3281;DHT22;1652;51.318;6.202;2023-04-23T15:19:14;13.20;99.90
3281;DHT22;1652;51.318;6.202;2023-04-23T15:21:44;13.30;99.90
3281;DHT22;1652;51.318;6.202;2023-04-23T15:24:12;13.20;99.90
3281;DHT22;1652;51.318;6.202;2023-04-23T15:26:39;13.10;99.90
3281;DHT22;1652;51.318;6.202;2023-04-23T15:29:06;13.10;99.90
3281;DHT22;1652;51.318;6.202;2023-04-23T15:31:36;13.20;99.90
3281;DHT22;1652;51.318;6.202;2023-04-23T15:34:04;13.20;99.90
3281;DHT22;1652;51.318;6.202;2023-04-23T15:36:33;13.20;99.90
3281;DHT22;1652;51.318;6.202;2023-04-23T15:39:01;13.20;99.90
3281;DHT22;1652;51.318;6.202;2023-04-23T15:41:28;13.20;99.90
3281;DHT22;1652;51.318;6.202;2023-04-23T15:43:55;13.20;99.90
3281;DHT22;1652;51.318;6.202;2023-04-23T15:46:22;13.20;99.90
3281;DHT22;1652;51.318;6.202;2023-04-23T15:48:49;13.20;99.90
3281;DHT22;1652;51.318;6.202;2023-04-23T15:51:15;13.20;99.90
3281;DHT22;1652;51.318;6.202;2023-04-23T15:53:43;13.10;99.90
3281;DHT22;1652;51.318;6.202;2023-04-23T15:56:10;13.20;99.90
3281;DHT22;1652;51.318;6.202;2023-04-23T15:58:37;13.20;99.90
3281;DHT22;1652;51.318;6.202;2023-04-23T16:01:04;13.20;99.90
3281;DHT22;1652;51.318;6.202;2023-04-23T16:03:33;13.20;99.90
3281;DHT22;1652;51.318;6.202;2023-04-23T16:06:00;13.30;99.90
3281;DHT22;1652;51.318;6.202;2023-04-23T16:08:27;13.20;99.90
3281;DHT22;1652;51.318;6.202;2023-04-23T16:10:54;13.20;99.90
3281;DHT22;1652;51.318;6.202;2023-04-23T16:13:23;13.30;99.90
3281;DHT22;1652;51.318;6.202;2023-04-23T16:15:50;13.20;99.90
3281;DHT22;1652;51.318;6.202;2023-04-23T16:18:18;13.10;99.90
3281;DHT22;1652;51.318;6.202;2023-04-23T16:20:45;13.10;99.90
3281;DHT22;1652;51.318;6.202;2023-04-23T16:23:12;13.20;99.90
3281;DHT22;1652;51.318;6.202;2023-04-23T16:25:38;13.20;99.90